Time;durP1;ratioP1;P1;durP2;ratioP2;P2;SDS_P1;SDS_P2;PMS_P1;PMS_P2;Temp;Humidity;BMP_temperature;BMP_pressure;BME280_temperature;BME280_humidity;BME280_pressure;Samples;Min_cycle;Max_cycle;Signal;HPM_P1;HPM_P2
2022/03/18 03:47:17;;;;;;;76.45;45.08;;;4.30;95.60;;;;;;4944209;23;20069;-80
2022/03/18 03:49:44;;;;;;;75.57;41.67;;;4.30;95.50;;;;;;4842303;29;20034;-80
2022/03/18 03:52:11;;;;;;;77.05;45.10;;;4.30;95.60;;;;;;4836963;29;20029;-80
2022/03/18 03:54:37;;;;;;;79.93;47.13;;;4.30;95.70;;;;;;4803817;29;20038;-80
2022/03/18 03:57:07;;;;;;;79.30;46.07;;;4.30;95.60;;;;;;4830617;29;20230;-80
2022/03/18 03:59:34;;;;;;;86.05;47.55;;;4.30;95.70;;;;;;4818534;29;20034;-80
2022/03/18 04:02:02;;;;;;;86.15;52.42;;;4.30;96.00;;;;;;4806801;29;20030;-79
2022/03/18 04:04:28;;;;;;;99.53;56.17;;;4.30;96.20;;;;;;4806194;29;20079;-79
2022/03/18 04:06:54;;;;;;;98.70;53.72;;;4.40;96.70;;;;;;4824665;29;20057;-80
2022/03/18 04:09:20;;;;;;;89.68;53.35;;;4.40;96.80;;;;;;4803439;29;20041;-79
2022/03/18 04:11:46;;;;;;;89.60;50.55;;;4.50;97.20;;;;;;4803356;29;20026;-79
2022/03/18 04:14:12;;;;;;;88.22;51.28;;;4.50;97.10;;;;;;4833570;29;20034;-80
2022/03/18 04:16:39;;;;;;;87.28;50.42;;;4.60;97.10;;;;;;4826058;29;20038;-81
2022/03/18 04:19:05;;;;;;;86.85;51.83;;;4.60;97.40;;;;;;4803904;29;20155;-81
2022/03/18 04:21:30;;;;;;;91.38;52.97;;;4.60;97.20;;;;;;4833558;29;20046;-80
2022/03/18 04:23:56;;;;;;;92.20;52.42;;;4.70;97.20;;;;;;4833655;29;20321;-80
2022/03/18 04:26:22;;;;;;;85.82;48.28;;;4.70;97.10;;;;;;4833651;29;20030;-80
2022/03/18 04:28:48;;;;;;;76.07;44.65;;;4.70;96.90;;;;;;4836325;29;20034;-81
2022/03/18 04:31:14;;;;;;;86.95;52.13;;;4.70;96.50;;;;;;4826912;29;20118;-80
2022/03/18 04:33:39;;;;;;;95.35;54.97;;;4.70;96.40;;;;;;4833223;29;20267;-81
2022/03/18 04:36:05;;;;;;;82.80;50.28;;;4.70;96.40;;;;;;4803068;29;20038;-81
2022/03/18 04:38:31;;;;;;;82.63;45.72;;;4.70;96.40;;;;;;4820329;29;20030;-80
2022/03/18 04:40:57;;;;;;;92.40;52.72;;;4.70;96.30;;;;;;4821075;29;20109;-80
2022/03/18 04:43:24;;;;;;;71.78;43.67;;;4.70;96.20;;;;;;4817107;29;20054;-80
2022/03/18 04:45:50;;;;;;;93.05;50.00;;;4.70;96.10;;;;;;4796050;29;20075;-81
2022/03/18 04:48:15;;;;;;;80.40;47.72;;;4.70;95.80;;;;;;4787356;29;20053;-80
2022/03/18 04:50:41;;;;;;;82.00;48.08;;;4.70;95.80;;;;;;4817180;29;20041;-80
2022/03/18 04:53:07;;;;;;;91.43;51.95;;;4.70;95.70;;;;;;4802304;29;20046;-81
2022/03/18 04:55:33;;;;;;;85.93;50.17;;;4.70;95.80;;;;;;4802026;29;20042;-81
2022/03/18 04:57:58;;;;;;;81.28;47.75;;;4.60;95.90;;;;;;4802075;29;20050;-81
2022/03/18 05:00:25;;;;;;;99.68;56.20;;;4.60;95.90;;;;;;4813132;29;20033;-80
2022/03/18 05:02:51;;;;;;;80.43;46.42;;;4.60;96.10;;;;;;4817431;29;20279;-80
2022/03/18 05:05:19;;;;;;;86.55;50.45;;;4.70;96.10;;;;;;4802008;29;20046;-80
2022/03/18 05:07:49;;;;;;;94.13;54.05;;;4.70;96.10;;;;;;4802215;29;20045;-80
2022/03/18 05:10:16;;;;;;;93.18;53.70;;;4.70;96.20;;;;;;4801901;29;20390;-79
2022/03/18 05:12:41;;;;;;;100.78;55.20;;;4.70;96.20;;;;;;4801762;29;20051;-79
2022/03/18 05:15:08;;;;;;;91.53;51.05;;;4.60;96.20;;;;;;4802518;29;20038;-79
2022/03/18 05:17:34;;;;;;;79.57;48.45;;;4.60;96.40;;;;;;4835844;29;20084;-80
2022/03/18 05:20:01;;;;;;;88.75;50.50;;;4.60;96.30;;;;;;4836004;29;20356;-80
2022/03/18 05:22:27;;;;;;;95.32;54.30;;;4.60;96.40;;;;;;4820612;29;20050;-79
2022/03/18 05:24:53;;;;;;;91.25;49.72;;;4.60;96.40;;;;;;4832861;29;20251;-79
2022/03/18 05:27:18;;;;;;;92.47;52.28;;;4.60;96.40;;;;;;4825862;29;20054;-80
2022/03/18 05:29:44;;;;;;;88.45;48.75;;;4.60;96.40;;;;;;4823746;29;20029;-79
2022/03/18 05:32:11;;;;;;;99.03;54.40;;;4.60;96.40;;;;;;4838935;29;20118;-80
2022/03/18 05:34:42;;;;;;;97.75;53.88;;;4.70;96.50;;;;;;4838463;29;20306;-82
2022/03/18 05:37:08;;;;;;;101.60;55.00;;;4.70;96.70;;;;;;4820563;29;20058;-80
2022/03/18 05:39:34;;;;;;;90.97;46.95;;;4.70;97.20;;;;;;4832487;29;20050;-80
2022/03/18 05:42:00;;;;;;;88.60;50.27;;;4.80;97.10;;;;;;4832574;29;20038;-80
2022/03/18 05:44:25;;;;;;;88.80;51.40;;;4.80;97.00;;;;;;4820660;29;20053;-80
2022/03/18 05:46:51;;;;;;;84.35;50.88;;;4.80;96.80;;;;;;4850653;29;20053;-81
2022/03/18 05:49:18;;;;;;;101.68;55.63;;;4.90;96.70;;;;;;4820529;29;20030;-81
2022/03/18 05:51:45;;;;;;;104.05;58.05;;;4.90;96.70;;;;;;4835530;29;20122;-80
2022/03/18 05:54:11;;;;;;;93.60;55.75;;;4.90;97.00;;;;;;4832076;29;20054;-80
2022/03/18 05:56:53;;;;;;;91.63;50.90;;;4.90;97.00;;;;;;4832577;29;20049;-81
2022/03/18 05:59:22;;;;;;;99.13;52.15;;;5.00;97.10;;;;;;4832764;29;20026;-81
2022/03/18 06:01:49;;;;;;;92.03;52.72;;;5.00;96.50;;;;;;4841778;29;20034;-79
2022/03/18 06:04:15;;;;;;;95.93;49.58;;;5.10;96.70;;;;;;4820076;29;20022;-80
2022/03/18 06:06:43;;;;;;;94.70;53.97;;;5.10;96.40;;;;;;4820365;29;20049;-80
2022/03/18 06:11:56;;;;;;;88.05;50.47;;;5.30;96.50;;;;;;4832266;29;20047;-80
2022/03/18 06:14:25;;;;;;;86.13;48.83;;;5.40;96.50;;;;;;4822338;29;20069;-80
2022/03/18 06:16:53;;;;;;;98.97;50.92;;;5.40;96.20;;;;;;4820793;29;20075;-80
2022/03/18 06:19:21;;;;;;;97.00;54.72;;;5.50;96.20;;;;;;4837223;29;20099;-80
2022/03/18 06:21:47;;;;;;;88.90;51.90;;;5.70;96.30;;;;;;4817611;29;20033;-80
2022/03/18 06:24:15;;;;;;;95.13;53.40;;;5.70;96.40;;;;;;4817647;29;20045;-80
2022/03/18 06:26:41;;;;;;;102.45;57.22;;;5.80;96.30;;;;;;4829393;29;20277;-80
2022/03/18 06:29:07;;;;;;;100.43;56.30;;;5.90;96.40;;;;;;4826942;29;20053;-81
2022/03/18 06:31:34;;;;;;;107.80;58.30;;;6.00;96.50;;;;;;4823389;29;20037;-80
2022/03/18 06:34:00;;;;;;;;;;;6.00;96.50;;;;;;4854872;29;20285;-81
2022/03/18 06:36:28;;;;;;;95.77;53.03;;;6.10;96.80;;;;;;4823229;29;19916;-80
2022/03/18 06:38:54;;;;;;;93.70;52.58;;;6.20;96.60;;;;;;4821462;29;20503;-81
2022/03/18 06:41:20;;;;;;;97.45;57.13;;;6.20;96.60;;;;;;4809577;29;20030;-81
2022/03/18 06:43:47;;;;;;;97.13;56.70;;;6.30;96.50;;;;;;4822691;29;20339;-81
2022/03/18 06:46:14;;;;;;;99.70;54.70;;;6.50;96.50;;;;;;4821225;29;20557;-80
2022/03/18 06:48:41;;;;;;;103.07;58.90;;;6.60;96.60;;;;;;4836108;29;20041;-80
2022/03/18 06:51:07;;;;;;;89.43;54.13;;;6.70;96.40;;;;;;4821384;29;20038;-80
2022/03/18 06:53:33;;;;;;;91.72;53.72;;;6.80;96.20;;;;;;4806542;29;20119;-80
2022/03/18 06:55:58;;;;;;;89.32;53.05;;;7.00;96.10;;;;;;4821656;29;20476;-81
2022/03/18 06:58:24;;;;;;;100.13;55.20;;;7.10;95.50;;;;;;4795446;29;20037;-81
2022/03/18 07:00:50;;;;;;;106.53;58.05;;;7.30;95.30;;;;;;4837173;29;20323;-81
2022/03/18 07:03:16;;;;;;;105.88;59.15;;;7.40;95.20;;;;;;4834268;29;20034;-81
2022/03/18 07:05:43;;;;;;;111.07;56.70;;;7.30;94.80;;;;;;4832703;29;20038;-81
2022/03/18 07:08:08;;;;;;;102.53;56.65;;;7.30;95.20;;;;;;4837185;29;20090;-81
2022/03/18 07:10:34;;;;;;;92.15;56.78;;;7.40;95.30;;;;;;4837412;29;20034;-80
2022/03/18 07:13:00;;;;;;;96.55;54.80;;;7.50;95.30;;;;;;4837009;29;20091;-81
2022/03/18 07:15:26;;;;;;;106.35;55.90;;;7.70;95.10;;;;;;4835959;29;20050;-81
2022/03/18 07:18:01;;;;;;;89.03;50.20;;;7.90;94.50;;;;;;4861172;29;20050;-81
2022/03/18 07:20:38;;;;;;;92.68;52.33;;;8.00;94.20;;;;;;4834091;29;20070;-81
2022/03/18 07:23:15;;;;;;;89.22;51.75;;;8.10;94.00;;;;;;4840266;29;20064;-81
2022/03/18 07:25:45;;;;;;;95.00;53.38;;;8.30;93.80;;;;;;4805271;29;20049;-81
2022/03/18 07:28:16;;;;;;;95.80;53.80;;;8.50;93.50;;;;;;4850204;29;20034;-81
2022/03/18 07:30:43;;;;;;;88.70;51.10;;;8.50;93.20;;;;;;4801600;29;20042;-81
2022/03/18 07:33:10;;;;;;;86.43;50.70;;;8.70;92.80;;;;;;4801715;29;20030;-82
2022/03/18 07:35:36;;;;;;;87.38;51.38;;;8.70;92.30;;;;;;4802007;29;20110;-81
2022/03/18 07:38:05;;;;;;;86.55;51.85;;;8.80;92.40;;;;;;4833149;29;20302;-82
2022/03/18 07:40:31;;;;;;;89.22;50.38;;;8.70;92.30;;;;;;4818240;29;20300;-82
2022/03/18 07:42:58;;;;;;;96.43;51.80;;;8.80;92.40;;;;;;4818428;29;20033;-80
2022/03/18 07:45:29;;;;;;;84.38;51.08;;;8.90;92.30;;;;;;4818185;29;20098;-81
2022/03/18 07:48:01;;;;;;;92.10;50.25;;;9.00;92.00;;;;;;4835813;29;20041;-81
2022/03/18 07:50:29;;;;;;;78.10;48.25;;;9.10;92.10;;;;;;4835999;29;20030;-82
2022/03/18 07:52:57;;;;;;;77.88;46.80;;;9.10;91.90;;;;;;4821024;29;20054;-81
2022/03/18 07:55:25;;;;;;;83.85;48.75;;;9.20;91.60;;;;;;4820981;29;20025;-81
2022/03/18 07:57:52;;;;;;;82.35;48.55;;;9.30;91.60;;;;;;4820996;29;20033;-82
2022/03/18 08:00:19;;;;;;;;;;;9.40;91.30;;;;;;4821134;29;20030;-81
2022/03/18 08:02:46;;;;;;;88.63;49.70;;;9.50;90.90;;;;;;4820468;29;19953;-81
2022/03/18 08:05:12;;;;;;;81.10;48.85;;;9.40;90.90;;;;;;4820525;29;20111;-80
2022/03/18 08:07:39;;;;;;;83.93;48.78;;;9.40;90.80;;;;;;4835576;29;20049;-81
2022/03/18 08:10:06;;;;;;;84.40;48.35;;;9.30;90.90;;;;;;4790581;29;20120;-81
2022/03/18 08:12:33;;;;;;;77.80;46.45;;;9.40;91.10;;;;;;4789912;29;20299;-81
2022/03/18 08:15:00;;;;;;;79.20;46.45;;;9.40;91.00;;;;;;4835773;29;20243;-81
2022/03/18 08:17:26;;;;;;;82.00;50.22;;;9.50;90.80;;;;;;4835936;29;20094;-81
2022/03/18 08:19:52;;;;;;;75.05;46.35;;;9.60;90.40;;;;;;4805202;29;20029;-81
2022/03/18 08:22:22;;;;;;;84.65;48.70;;;9.60;90.20;;;;;;4835466;29;20102;-82
2022/03/18 08:24:48;;;;;;;81.53;48.38;;;9.60;90.30;;;;;;4834997;29;20526;-82
2022/03/18 08:27:14;;;;;;;89.57;49.75;;;9.60;90.70;;;;;;4835037;29;20131;-82
2022/03/18 08:29:40;;;;;;;85.85;48.92;;;9.60;90.70;;;;;;4819822;29;20033;-80
2022/03/18 08:32:07;;;;;;;85.13;48.88;;;9.70;90.90;;;;;;4835178;29;20075;-80
2022/03/18 08:34:33;;;;;;;77.10;46.78;;;9.70;90.20;;;;;;4819079;29;20281;-81
2022/03/18 08:37:00;;;;;;;76.25;47.45;;;9.80;90.70;;;;;;4850509;29;20337;-81
2022/03/18 08:39:26;;;;;;;77.43;46.30;;;9.90;90.50;;;;;;4834707;29;20029;-81
2022/03/18 08:41:52;;;;;;;80.93;47.13;;;10.10;90.10;;;;;;4833088;29;20308;-81
2022/03/18 08:44:19;;;;;;;88.32;48.40;;;10.30;89.30;;;;;;4834902;29;20045;-81
2022/03/18 08:46:49;;;;;;;75.25;47.60;;;10.20;87.40;;;;;;4819049;29;20333;-82
2022/03/18 08:49:15;;;;;;;80.40;49.40;;;10.20;89.20;;;;;;4849204;29;20082;-82
2022/03/18 08:51:41;;;;;;;80.18;48.05;;;10.50;87.90;;;;;;4832652;29;20034;-81
2022/03/18 08:54:06;;;;;;;79.30;47.78;;;10.40;87.00;;;;;;4834312;29;20096;-81
2022/03/18 08:56:33;;;;;;;78.03;47.35;;;10.40;88.50;;;;;;4832382;29;20050;-81
2022/03/18 08:59:03;;;;;;;75.28;46.40;;;10.30;87.00;;;;;;4812985;29;20072;-81
2022/03/18 09:01:29;;;;;;;76.55;46.60;;;10.20;88.50;;;;;;4820398;29;20040;-81
2022/03/18 09:03:55;;;;;;;72.20;46.15;;;10.40;89.00;;;;;;4850563;29;20037;-81
2022/03/18 09:06:21;;;;;;;71.72;44.72;;;10.50;87.90;;;;;;4832351;29;20057;-81
2022/03/18 09:08:46;;;;;;;73.65;46.72;;;10.80;88.40;;;;;;4834161;29;20344;-81
2022/03/18 09:11:12;;;;;;;82.45;46.55;;;11.00;85.40;;;;;;4834926;29;20034;-81
2022/03/18 09:13:38;;;;;;;68.50;44.55;;;11.00;85.50;;;;;;4835217;29;20055;-82
2022/03/18 09:16:05;;;;;;;75.10;46.63;;;11.10;86.40;;;;;;4832391;29;20223;-82
2022/03/18 09:18:33;;;;;;;71.60;46.80;;;11.10;84.20;;;;;;4833526;29;20203;-81
2022/03/18 09:20:59;;;;;;;65.50;44.55;;;11.00;85.80;;;;;;4835877;29;20036;-81
2022/03/18 09:23:25;;;;;;;79.50;48.00;;;11.20;85.60;;;;;;4820898;29;20070;-81
2022/03/18 09:25:51;;;;;;;77.15;47.13;;;11.40;84.90;;;;;;4835843;29;20034;-81
2022/03/18 09:28:17;;;;;;;75.40;45.33;;;11.50;83.80;;;;;;4838975;29;20131;-81
2022/03/18 09:30:43;;;;;;;72.30;47.35;;;11.50;83.70;;;;;;4835696;29;20310;-81
2022/03/18 09:33:09;;;;;;;72.67;45.33;;;11.50;84.40;;;;;;4835531;29;20038;-82
2022/03/18 09:35:36;;;;;;;75.75;45.28;;;11.40;84.60;;;;;;4820471;29;20094;-81
2022/03/18 09:38:02;;;;;;;76.10;45.90;;;11.50;85.00;;;;;;4847264;29;20109;-81
2022/03/18 09:40:29;;;;;;;73.73;45.30;;;11.70;84.40;;;;;;4848215;29;20034;-81
2022/03/18 09:43:14;;;;;;;72.70;45.58;;;11.80;82.50;;;;;;4839564;29;20018;-80
2022/03/18 09:45:41;;;;;;;68.00;45.17;;;11.80;82.80;;;;;;4835695;29;20058;-81
2022/03/18 09:48:11;;;;;;;72.88;43.28;;;11.80;83.70;;;;;;4835475;29;20034;-81
2022/03/18 09:50:39;;;;;;;65.13;42.28;;;12.10;83.10;;;;;;4837367;29;20051;-81
2022/03/18 09:53:06;;;;;;;72.10;44.67;;;12.20;81.30;;;;;;4841964;29;20233;-81
2022/03/18 09:55:34;;;;;;;68.25;44.03;;;12.30;81.30;;;;;;4839809;29;20199;-81
2022/03/18 09:58:01;;;;;;;66.03;42.95;;;12.40;81.00;;;;;;4840076;29;20062;-81
2022/03/18 10:00:27;;;;;;;69.90;44.20;;;12.50;81.00;;;;;;4839579;29;20030;-81
2022/03/18 10:03:10;;;;;;;72.93;41.97;;;12.70;79.50;;;;;;4840349;29;20721;-81
2022/03/18 10:05:46;;;;;;;63.30;43.08;;;12.70;78.60;;;;;;4839505;29;20271;-81
2022/03/18 10:08:12;;;;;;;67.75;43.60;;;12.70;79.40;;;;;;4823000;29;20038;-81
2022/03/18 10:10:48;;;;;;;76.40;44.20;;;12.70;78.40;;;;;;4822747;29;20102;-81
2022/03/18 10:13:16;;;;;;;66.65;43.08;;;12.80;78.70;;;;;;4822802;29;20034;-82
2022/03/18 10:15:45;;;;;;;69.00;41.58;;;13.00;78.40;;;;;;4831866;29;20259;-81
2022/03/18 10:18:14;;;;;;;62.25;41.95;;;13.10;77.50;;;;;;4814050;29;20030;-81
2022/03/18 10:20:48;;;;;;;59.58;40.72;;;13.10;76.50;;;;;;4832121;29;20034;-81
2022/03/18 10:23:23;;;;;;;62.17;39.50;;;13.00;77.00;;;;;;4833024;29;20230;-82
2022/03/18 10:25:56;;;;;;;59.97;39.15;;;13.20;77.00;;;;;;4854161;29;20037;-82
2022/03/18 10:28:37;;;;;;;59.53;39.67;;;13.30;75.90;;;;;;4841314;29;20084;-82
2022/03/18 10:31:21;;;;;;;63.58;40.15;;;13.40;74.70;;;;;;4837504;29;20033;-82
2022/03/18 10:39:39;;;;;;;61.60;39.92;;;13.40;74.80;;;;;;4853008;29;20041;-81
2022/03/18 10:42:13;;;;;;;64.80;40.95;;;13.50;75.00;;;;;;4834326;29;20034;-82
2022/03/18 10:44:44;;;;;;;53.63;36.92;;;13.60;74.60;;;;;;4837232;29;20219;-82
2022/03/18 10:47:29;;;;;;;60.92;40.55;;;13.80;73.10;;;;;;4836459;29;20245;-82
2022/03/18 10:50:10;;;;;;;59.13;39.97;;;14.00;72.60;;;;;;4837504;29;20046;-82
2022/03/18 10:52:37;;;;;;;61.22;39.53;;;14.10;72.10;;;;;;4837151;29;20030;-82
2022/03/18 10:55:19;;;;;;;56.15;37.33;;;14.10;71.60;;;;;;4834385;29;20155;-83
2022/03/18 10:57:53;;;;;;;55.58;37.15;;;14.20;71.00;;;;;;4830605;29;20086;-80
2022/03/18 11:00:20;;;;;;;53.53;34.53;;;14.30;69.90;;;;;;4821486;29;20226;-82
2022/03/18 11:02:51;;;;;;;51.17;33.15;;;14.50;71.20;;;;;;4821377;29;20048;-82
2022/03/18 11:05:21;;;;;;;52.40;33.20;;;14.70;67.20;;;;;;4836451;29;20037;-81
2022/03/18 11:07:50;;;;;;;54.17;35.72;;;14.70;67.00;;;;;;4806566;29;20221;-82
2022/03/18 11:13:04;;;;;;;51.78;34.67;;;14.80;66.50;;;;;;4837265;29;20046;-82
2022/03/18 11:15:32;;;;;;;48.43;32.07;;;14.70;66.20;;;;;;4806468;29;20055;-82
2022/03/18 11:17:58;;;;;;;52.78;31.20;;;14.90;65.50;;;;;;4828743;29;20030;-82
2022/03/18 11:20:26;;;;;;;51.17;32.03;;;15.00;64.70;;;;;;4822193;29;20262;-82
2022/03/18 11:22:52;;;;;;;49.35;32.42;;;15.00;63.60;;;;;;4833360;29;20050;-81
2022/03/18 11:25:19;;;;;;;45.65;30.58;;;15.10;65.10;;;;;;4834370;29;20038;-82
2022/03/18 11:27:46;;;;;;;47.85;31.85;;;15.00;62.10;;;;;;4841161;29;20074;-83
2022/03/18 11:30:19;;;;;;;45.42;31.05;;;14.80;62.60;;;;;;4821068;29;20038;-83
2022/03/18 11:33:03;;;;;;;43.88;29.67;;;14.90;63.70;;;;;;4833656;29;20356;-82
2022/03/18 11:35:49;;;;;;;44.35;28.73;;;15.10;62.60;;;;;;4836433;29;20341;-83
2022/03/18 11:38:17;;;;;;;43.50;28.55;;;15.20;61.20;;;;;;4836547;29;20108;-83
2022/03/18 11:40:57;;;;;;;44.88;29.40;;;15.30;62.00;;;;;;4836865;29;20022;-82
2022/03/18 11:43:39;;;;;;;42.53;30.58;;;15.40;60.90;;;;;;4836664;29;20242;-82
2022/03/18 11:46:17;;;;;;;44.67;29.65;;;15.40;61.70;;;;;;4836344;29;20058;-82
2022/03/18 11:49:02;;;;;;;51.78;32.35;;;15.40;60.00;;;;;;4821030;29;20325;-82
2022/03/18 11:51:44;;;;;;;44.38;32.25;;;15.50;60.80;;;;;;4837319;29;20345;-83
2022/03/18 11:54:12;;;;;;;46.38;31.20;;;15.60;60.00;;;;;;4833628;29;20059;-83
2022/03/18 11:56:57;;;;;;;47.30;31.92;;;15.50;58.90;;;;;;4828898;29;20029;-83
2022/03/18 11:59:29;;;;;;;47.20;32.05;;;15.60;60.80;;;;;;4834217;29;20037;-82
2022/03/18 12:01:55;;;;;;;47.90;33.63;;;15.50;58.70;;;;;;4820791;29;20053;-82
2022/03/18 12:04:33;;;;;;;50.80;33.07;;;15.50;59.80;;;;;;4851238;29;20057;-82
2022/03/18 12:07:30;;;;;;;52.60;34.75;;;15.50;59.80;;;;;;4820999;29;20038;-82
2022/03/18 12:10:02;;;;;;;43.17;31.10;;;15.60;60.70;;;;;;4850977;29;20097;-83
2022/03/18 12:12:41;;;;;;;43.47;29.55;;;15.60;58.40;;;;;;4835813;29;20090;-82
2022/03/18 12:15:22;;;;;;;41.85;28.40;;;15.60;58.70;;;;;;4836973;29;20053;-83
2022/03/18 12:17:56;;;;;;;40.83;28.17;;;15.70;58.00;;;;;;4838260;29;20317;-83
2022/03/18 12:20:24;;;;;;;46.63;29.08;;;15.80;57.30;;;;;;4835691;29;20046;-82
2022/03/18 12:22:54;;;;;;;43.05;27.88;;;15.70;56.10;;;;;;4835120;29;20044;-82
2022/03/18 12:25:22;;;;;;;37.95;27.58;;;15.70;56.80;;;;;;4832477;29;20030;-82
2022/03/18 12:27:49;;;;;;;39.35;27.55;;;15.80;57.60;;;;;;4840744;29;20429;-81
2022/03/18 12:30:16;;;;;;;;;;;16.00;56.20;;;;;;4836210;29;20079;-82
2022/03/18 12:32:56;;;;;;;43.42;27.92;;;16.20;56.00;;;;;;4835429;29;19916;-82
2022/03/18 12:35:27;;;;;;;38.25;25.73;;;16.40;54.90;;;;;;4835810;29;20038;-82
2022/03/18 12:38:13;;;;;;;37.75;25.30;;;16.60;54.20;;;;;;4835578;29;20036;-84
2022/03/18 12:40:53;;;;;;;40.08;26.90;;;16.70;53.10;;;;;;4833476;29;20038;-83
2022/03/18 12:43:19;;;;;;;39.55;26.52;;;16.90;53.50;;;;;;4821412;29;20288;-83
2022/03/18 12:45:45;;;;;;;42.35;28.33;;;16.90;53.00;;;;;;4846504;29;20088;-83
2022/03/18 12:48:13;;;;;;;39.88;28.75;;;17.10;52.40;;;;;;4805095;29;20061;-82
2022/03/18 12:50:44;;;;;;;46.72;29.88;;;17.00;52.30;;;;;;4834892;29;20352;-83
2022/03/18 12:53:22;;;;;;;42.80;30.30;;;17.00;52.90;;;;;;4818959;29;20034;-83
2022/03/18 12:55:54;;;;;;;41.08;28.58;;;16.90;52.80;;;;;;4835248;29;20041;-82
2022/03/18 12:58:38;;;;;;;41.30;29.30;;;17.00;53.90;;;;;;4835227;29;20400;-83
2022/03/18 13:01:04;;;;;;;42.20;29.33;;;17.10;53.60;;;;;;4835116;29;20365;-83
2022/03/18 13:03:31;;;;;;;44.55;30.58;;;17.10;53.40;;;;;;4821477;29;20053;-83
2022/03/18 13:06:18;;;;;;;42.70;29.95;;;17.20;53.50;;;;;;4835135;29;20337;-83
2022/03/18 13:08:47;;;;;;;39.42;29.70;;;17.10;52.30;;;;;;4815188;29;20034;-83
2022/03/18 13:11:13;;;;;;;42.60;28.52;;;16.90;53.60;;;;;;4835171;29;20045;-83
2022/03/18 13:13:48;;;;;;;48.53;30.23;;;16.70;53.20;;;;;;4838031;29;20119;-83
2022/03/18 13:16:15;;;;;;;45.03;28.73;;;16.70;52.90;;;;;;4820138;29;20034;-83
2022/03/18 13:18:56;;;;;;;42.88;28.73;;;16.40;53.30;;;;;;4834830;29;20099;-83
2022/03/18 13:21:22;;;;;;;43.50;29.55;;;16.20;52.60;;;;;;4820620;29;20038;-83
2022/03/18 13:23:52;;;;;;;41.08;29.20;;;15.90;53.40;;;;;;4855219;29;20384;-83
2022/03/18 13:26:20;;;;;;;42.70;28.70;;;15.60;53.80;;;;;;4838793;29;20071;-83
2022/03/18 13:28:49;;;;;;;44.22;30.65;;;15.40;53.80;;;;;;4838649;29;20321;-83
2022/03/18 13:33:59;;;;;;;42.75;29.35;;;14.90;53.60;;;;;;4853831;29;20037;-83
2022/03/18 13:36:39;;;;;;;43.75;29.35;;;14.70;55.20;;;;;;4823440;29;20334;-83
2022/03/18 13:39:25;;;;;;;41.38;29.35;;;14.60;55.10;;;;;;4823567;29;20254;-82
2022/03/18 13:41:55;;;;;;;45.35;31.45;;;14.50;54.70;;;;;;4823321;29;20053;-83
2022/03/18 13:44:27;;;;;;;43.70;28.92;;;14.60;54.40;;;;;;4854899;29;20046;-83
2022/03/18 13:47:02;;;;;;;47.25;30.05;;;14.60;55.50;;;;;;4835096;29;20076;-83
2022/03/18 13:49:28;;;;;;;46.50;30.10;;;14.60;55.60;;;;;;4836541;29;20042;-83
2022/03/18 13:52:09;;;;;;;43.53;29.65;;;14.80;55.30;;;;;;4835354;29;20045;-83
2022/03/18 13:54:49;;;;;;;48.83;31.13;;;15.00;55.10;;;;;;4837776;29;20038;-83
2022/03/18 13:57:15;;;;;;;39.10;28.02;;;15.20;54.40;;;;;;4835382;29;20054;-83
2022/03/18 13:59:50;;;;;;;52.30;31.98;;;15.40;54.20;;;;;;4837741;29;20033;-83
2022/03/18 14:02:30;;;;;;;42.85;28.95;;;15.50;52.70;;;;;;4837981;29;20040;-83
2022/03/18 14:04:58;;;;;;;42.38;28.95;;;15.60;52.40;;;;;;4837265;29;20046;-83
2022/03/18 14:07:49;;;;;;;45.67;29.30;;;15.60;53.10;;;;;;4822978;29;20033;-82
2022/03/18 14:10:18;;;;;;;55.10;30.27;;;15.90;52.00;;;;;;4834746;29;20027;-82
2022/03/18 14:13:00;;;;;;;47.50;31.30;;;16.10;52.40;;;;;;4837382;29;20276;-83
2022/03/18 14:15:35;;;;;;;40.25;28.83;;;16.10;52.90;;;;;;4837582;29;20026;-82
2022/03/18 14:18:07;;;;;;;40.25;28.17;;;16.10;51.20;;;;;;4838923;29;20029;-82
2022/03/18 14:20:55;;;;;;;41.78;29.35;;;16.20;51.80;;;;;;4824006;29;20364;-83
2022/03/18 14:23:23;;;;;;;48.60;30.77;;;16.10;51.50;;;;;;4834988;29;20043;-83
2022/03/18 14:25:51;;;;;;;43.95;31.20;;;15.90;50.90;;;;;;4837386;29;20057;-83
2022/03/18 14:28:26;;;;;;;42.63;30.08;;;15.70;52.10;;;;;;4838034;29;20329;-83
2022/03/18 14:30:54;;;;;;;40.47;28.67;;;15.80;51.30;;;;;;4837801;29;20045;-83
2022/03/18 14:33:22;;;;;;;42.20;28.38;;;15.80;51.20;;;;;;4836510;29;20383;-82
2022/03/18 14:35:49;;;;;;;45.40;29.77;;;15.80;51.80;;;;;;4823869;29;20026;-82
2022/03/18 14:38:16;;;;;;;43.95;29.80;;;15.70;51.80;;;;;;4839510;29;20073;-83
2022/03/18 14:40:42;;;;;;;40.75;28.83;;;15.70;51.30;;;;;;4855353;29;20069;-82
2022/03/18 14:43:08;;;;;;;44.30;29.67;;;15.60;51.50;;;;;;4839731;29;20053;-82
2022/03/18 14:45:35;;;;;;;41.55;29.17;;;15.60;50.80;;;;;;4837278;29;20116;-81
2022/03/18 14:48:01;;;;;;;42.85;30.55;;;15.50;50.10;;;;;;4836893;29;20249;-81
2022/03/18 14:50:27;;;;;;;42.75;29.65;;;15.40;51.10;;;;;;4837522;29;20371;-82
2022/03/18 14:52:53;;;;;;;49.22;31.42;;;15.40;52.30;;;;;;4806079;29;20034;-82
2022/03/18 14:58:05;;;;;;;49.10;29.95;;;15.40;52.20;;;;;;4839031;29;20262;-83
2022/03/18 15:00:32;;;;;;;44.70;31.30;;;15.40;52.30;;;;;;4819815;29;20109;-81
2022/03/18 15:03:02;;;;;;;47.10;29.95;;;15.40;51.40;;;;;;4836303;29;20033;-82
2022/03/18 15:05:27;;;;;;;50.25;31.20;;;15.10;51.20;;;;;;4819062;29;20045;-82
2022/03/18 15:07:53;;;;;;;46.03;30.27;;;15.00;52.40;;;;;;4821543;29;20037;-81
2022/03/18 15:10:20;;;;;;;47.67;31.52;;;15.00;52.30;;;;;;4852239;29;20033;-82
2022/03/18 15:12:46;;;;;;;41.63;29.20;;;15.10;52.50;;;;;;4836842;29;20265;-82
2022/03/18 15:15:14;;;;;;;46.20;30.30;;;15.10;52.20;;;;;;4836435;29;20277;-82
2022/03/18 15:17:41;;;;;;;44.55;29.90;;;15.00;52.40;;;;;;4809923;29;20025;-82
2022/03/18 15:20:11;;;;;;;50.22;32.22;;;15.00;52.40;;;;;;4822431;29;20049;-82
2022/03/18 15:22:37;;;;;;;45.50;30.77;;;15.00;52.30;;;;;;4820021;29;20038;-82
2022/03/18 15:25:03;;;;;;;47.83;29.77;;;14.90;51.90;;;;;;4819760;29;20042;-81
2022/03/18 15:27:31;;;;;;;44.95;28.95;;;14.80;52.50;;;;;;4822259;29;20026;-83
2022/03/18 15:29:58;;;;;;;49.75;30.15;;;14.80;51.90;;;;;;4836678;29;20042;-83
2022/03/18 15:32:25;;;;;;;46.17;30.73;;;14.60;50.80;;;;;;4836932;29;20041;-83
2022/03/18 15:34:52;;;;;;;48.38;29.73;;;14.50;52.10;;;;;;4835635;29;20046;-83
2022/03/18 15:37:22;;;;;;;43.38;28.38;;;14.50;52.50;;;;;;4819019;29;20024;-82
2022/03/18 15:39:49;;;;;;;48.67;31.52;;;14.30;52.00;;;;;;4822429;29;20065;-83
2022/03/18 15:42:15;;;;;;;;;;;14.30;52.20;;;;;;4834177;29;20030;-83
2022/03/18 15:44:41;;;;;;;45.20;29.80;;;14.20;52.70;;;;;;4834469;29;19955;-83
2022/03/18 15:47:06;;;;;;;45.55;30.02;;;14.10;52.70;;;;;;4835838;29;20050;-83
2022/03/18 15:49:36;;;;;;;45.90;30.73;;;14.10;53.20;;;;;;4805821;29;20187;-82
2022/03/18 15:52:04;;;;;;;47.65;30.38;;;14.10;53.50;;;;;;4820953;29;20052;-82
2022/03/18 15:54:30;;;;;;;54.15;33.03;;;14.10;53.40;;;;;;4821984;29;20211;-82
2022/03/18 15:56:56;;;;;;;45.33;31.35;;;14.10;53.70;;;;;;4836180;29;20037;-81
2022/03/18 15:59:22;;;;;;;44.30;30.80;;;14.00;53.40;;;;;;4851117;29;20105;-81
2022/03/18 16:01:48;;;;;;;43.67;30.30;;;13.90;53.50;;;;;;4836057;29;20083;-81
2022/03/18 16:04:14;;;;;;;50.88;34.25;;;13.80;53.90;;;;;;4820977;29;20339;-81
2022/03/18 16:06:40;;;;;;;52.55;33.35;;;13.70;54.20;;;;;;4837275;29;20046;-81
2022/03/18 16:09:06;;;;;;;48.38;33.28;;;13.60;54.10;;;;;;4830549;29;20118;-82
2022/03/18 16:11:32;;;;;;;48.83;32.10;;;13.50;54.40;;;;;;4833215;29;20042;-82
2022/03/18 16:13:58;;;;;;;52.38;32.00;;;13.40;54.60;;;;;;4818080;29;20041;-82
2022/03/18 16:16:25;;;;;;;54.00;32.65;;;13.30;55.10;;;;;;4850441;29;20230;-83
2022/03/18 16:18:55;;;;;;;51.17;32.57;;;13.20;55.30;;;;;;4815392;29;20397;-83
2022/03/18 16:21:24;;;;;;;56.70;31.75;;;13.20;55.30;;;;;;4835031;29;20490;-83
2022/03/18 16:23:52;;;;;;;55.67;32.17;;;13.10;55.80;;;;;;4850643;29;20105;-83
2022/03/18 16:26:22;;;;;;;57.05;33.65;;;13.00;56.00;;;;;;4820767;29;20038;-83
2022/03/18 16:28:49;;;;;;;54.72;32.63;;;12.90;56.20;;;;;;4837037;29;20045;-83
2022/03/18 16:31:18;;;;;;;51.58;32.17;;;12.90;56.60;;;;;;4837269;29;20042;-82
2022/03/18 16:33:45;;;;;;;51.55;33.88;;;12.80;57.10;;;;;;4833928;29;20054;-82
2022/03/18 16:36:11;;;;;;;56.10;32.15;;;12.70;57.30;;;;;;4801572;29;20079;-83
2022/03/18 16:38:38;;;;;;;51.30;33.33;;;12.60;57.60;;;;;;4819852;29;20030;-82
2022/03/18 16:41:04;;;;;;;55.58;33.42;;;12.50;57.90;;;;;;4819220;29;20034;-83
2022/03/18 16:43:31;;;;;;;51.70;33.72;;;12.40;58.10;;;;;;4833063;29;20330;-83